sensor_id;sensor_type;location;lat;lon;timestamp;temperature;humidity
26821;DHT22;37186;51.394;5.454;2023-03-01T00:01:19;4.00;66.90
26821;DHT22;37186;51.394;5.454;2023-03-01T00:04:20;4.00;66.90
26821;DHT22;37186;51.394;5.454;2023-03-01T00:07:20;4.00;66.90
26821;DHT22;37186;51.394;5.454;2023-03-01T00:10:21;3.90;66.90
26821;DHT22;37186;51.394;5.454;2023-03-01T00:13:22;3.90;66.90
26821;DHT22;37186;51.394;5.454;2023-03-01T00:16:26;3.90;67.00
26821;DHT22;37186;51.394;5.454;2023-03-01T00:19:26;3.90;66.80
26821;DHT22;37186;51.394;5.454;2023-03-01T00:22:27;3.90;66.90
26821;DHT22;37186;51.394;5.454;2023-03-01T00:25:28;3.80;66.90
26821;DHT22;37186;51.394;5.454;2023-03-01T00:28:29;3.80;66.90
26821;DHT22;37186;51.394;5.454;2023-03-01T00:31:31;3.80;66.80
26821;DHT22;37186;51.394;5.454;2023-03-01T00:34:32;3.80;66.90
26821;DHT22;37186;51.394;5.454;2023-03-01T00:37:32;3.70;66.70
26821;DHT22;37186;51.394;5.454;2023-03-01T00:40:35;3.70;66.90
26821;DHT22;37186;51.394;5.454;2023-03-01T00:43:36;3.70;66.90
26821;DHT22;37186;51.394;5.454;2023-03-01T00:46:39;3.70;67.00
26821;DHT22;37186;51.394;5.454;2023-03-01T00:49:40;3.70;67.00
26821;DHT22;37186;51.394;5.454;2023-03-01T00:52:40;3.70;66.90
26821;DHT22;37186;51.394;5.454;2023-03-01T00:55:41;3.70;66.90
26821;DHT22;37186;51.394;5.454;2023-03-01T00:58:41;3.60;66.90
26821;DHT22;37186;51.394;5.454;2023-03-01T01:01:42;3.60;66.80
26821;DHT22;37186;51.394;5.454;2023-03-01T01:04:44;3.60;66.90
26821;DHT22;37186;51.394;5.454;2023-03-01T01:07:45;3.60;67.00
26821;DHT22;37186;51.394;5.454;2023-03-01T01:10:45;3.60;67.00
26821;DHT22;37186;51.394;5.454;2023-03-01T01:13:47;3.50;66.90
26821;DHT22;37186;51.394;5.454;2023-03-01T01:16:48;3.50;67.00
26821;DHT22;37186;51.394;5.454;2023-03-01T01:19:49;3.50;67.00
26821;DHT22;37186;51.394;5.454;2023-03-01T01:22:49;3.50;66.90
26821;DHT22;37186;51.394;5.454;2023-03-01T01:25:51;3.50;67.00
26821;DHT22;37186;51.394;5.454;2023-03-01T01:28:52;3.40;66.60
26821;DHT22;37186;51.394;5.454;2023-03-01T01:31:53;3.40;66.70
26821;DHT22;37186;51.394;5.454;2023-03-01T01:34:54;3.40;66.90
26821;DHT22;37186;51.394;5.454;2023-03-01T01:37:54;3.40;67.00
26821;DHT22;37186;51.394;5.454;2023-03-01T01:40:55;3.40;67.00
26821;DHT22;37186;51.394;5.454;2023-03-01T01:47:21;3.30;67.00
26821;DHT22;37186;51.394;5.454;2023-03-01T01:50:22;3.30;67.00
26821;DHT22;37186;51.394;5.454;2023-03-01T01:53:24;3.30;67.00
26821;DHT22;37186;51.394;5.454;2023-03-01T01:56:27;3.30;66.90
26821;DHT22;37186;51.394;5.454;2023-03-01T01:59:30;3.30;66.90
26821;DHT22;37186;51.394;5.454;2023-03-01T02:02:32;3.20;67.00
26821;DHT22;37186;51.394;5.454;2023-03-01T02:05:57;3.20;67.00
26821;DHT22;37186;51.394;5.454;2023-03-01T02:09:03;3.20;67.00
26821;DHT22;37186;51.394;5.454;2023-03-01T02:12:05;3.20;66.90
26821;DHT22;37186;51.394;5.454;2023-03-01T02:15:07;3.20;67.00
26821;DHT22;37186;51.394;5.454;2023-03-01T02:18:09;3.20;66.90
26821;DHT22;37186;51.394;5.454;2023-03-01T02:31:18;3.10;67.10
26821;DHT22;37186;51.394;5.454;2023-03-01T02:34:38;3.00;67.10
26821;DHT22;37186;51.394;5.454;2023-03-01T02:37:40;3.00;67.00
26821;DHT22;37186;51.394;5.454;2023-03-01T02:40:41;3.00;66.90
26821;DHT22;37186;51.394;5.454;2023-03-01T02:43:42;3.00;66.90
26821;DHT22;37186;51.394;5.454;2023-03-01T02:46:51;3.00;66.90
26821;DHT22;37186;51.394;5.454;2023-03-01T02:49:52;3.00;67.10
26821;DHT22;37186;51.394;5.454;2023-03-01T02:53:21;2.90;67.00
26821;DHT22;37186;51.394;5.454;2023-03-01T02:56:23;2.90;66.90
26821;DHT22;37186;51.394;5.454;2023-03-01T02:59:27;2.90;66.90
26821;DHT22;37186;51.394;5.454;2023-03-01T03:02:30;2.80;67.00
26821;DHT22;37186;51.394;5.454;2023-03-01T03:05:36;2.80;67.20
26821;DHT22;37186;51.394;5.454;2023-03-01T03:08:37;2.80;67.00
26821;DHT22;37186;51.394;5.454;2023-03-01T03:11:38;2.80;67.00
26821;DHT22;37186;51.394;5.454;2023-03-01T03:14:41;2.80;67.00
26821;DHT22;37186;51.394;5.454;2023-03-01T03:17:42;2.80;67.10
26821;DHT22;37186;51.394;5.454;2023-03-01T03:20:43;2.80;67.10
26821;DHT22;37186;51.394;5.454;2023-03-01T03:23:44;2.80;67.10
26821;DHT22;37186;51.394;5.454;2023-03-01T03:26:45;2.70;67.10
26821;DHT22;37186;51.394;5.454;2023-03-01T03:29:45;2.70;67.10
26821;DHT22;37186;51.394;5.454;2023-03-01T03:32:47;2.70;67.10
26821;DHT22;37186;51.394;5.454;2023-03-01T03:35:52;2.70;67.20
26821;DHT22;37186;51.394;5.454;2023-03-01T03:38:53;2.70;67.10
26821;DHT22;37186;51.394;5.454;2023-03-01T03:41:53;2.70;67.10
26821;DHT22;37186;51.394;5.454;2023-03-01T03:44:54;2.70;67.10
26821;DHT22;37186;51.394;5.454;2023-03-01T03:47:55;2.60;67.10
26821;DHT22;37186;51.394;5.454;2023-03-01T03:50:56;2.70;67.30
26821;DHT22;37186;51.394;5.454;2023-03-01T03:53:56;2.60;67.10
26821;DHT22;37186;51.394;5.454;2023-03-01T03:56:57;2.60;67.10
26821;DHT22;37186;51.394;5.454;2023-03-01T03:59:57;2.60;67.20
26821;DHT22;37186;51.394;5.454;2023-03-01T04:02:58;2.60;67.10
26821;DHT22;37186;51.394;5.454;2023-03-01T04:06:00;2.60;67.10
26821;DHT22;37186;51.394;5.454;2023-03-01T04:09:00;2.60;67.10
26821;DHT22;37186;51.394;5.454;2023-03-01T04:12:02;2.60;67.20
26821;DHT22;37186;51.394;5.454;2023-03-01T04:15:05;2.60;67.20
26821;DHT22;37186;51.394;5.454;2023-03-01T04:18:15;2.50;67.20
26821;DHT22;37186;51.394;5.454;2023-03-01T04:21:16;2.50;67.20
26821;DHT22;37186;51.394;5.454;2023-03-01T04:24:16;2.50;67.20
26821;DHT22;37186;51.394;5.454;2023-03-01T04:27:17;2.50;67.20
26821;DHT22;37186;51.394;5.454;2023-03-01T04:30:17;2.50;67.10
26821;DHT22;37186;51.394;5.454;2023-03-01T04:33:18;2.50;67.10
26821;DHT22;37186;51.394;5.454;2023-03-01T04:36:21;2.50;67.20
26821;DHT22;37186;51.394;5.454;2023-03-01T04:39:21;2.40;67.00
26821;DHT22;37186;51.394;5.454;2023-03-01T04:42:22;2.40;67.20
26821;DHT22;37186;51.394;5.454;2023-03-01T04:45:23;2.40;67.10
26821;DHT22;37186;51.394;5.454;2023-03-01T04:48:23;2.40;67.10
26821;DHT22;37186;51.394;5.454;2023-03-01T04:51:24;2.40;67.10
26821;DHT22;37186;51.394;5.454;2023-03-01T04:54:24;2.30;67.10
26821;DHT22;37186;51.394;5.454;2023-03-01T04:57:25;2.40;67.10
26821;DHT22;37186;51.394;5.454;2023-03-01T05:00:26;2.30;67.00
26821;DHT22;37186;51.394;5.454;2023-03-01T05:03:26;2.30;67.20
26821;DHT22;37186;51.394;5.454;2023-03-01T05:06:28;2.30;67.10
26821;DHT22;37186;51.394;5.454;2023-03-01T05:09:29;2.30;67.20
26821;DHT22;37186;51.394;5.454;2023-03-01T05:12:29;2.30;67.20
26821;DHT22;37186;51.394;5.454;2023-03-01T05:15:31;2.30;67.20
26821;DHT22;37186;51.394;5.454;2023-03-01T05:18:33;2.30;67.20
26821;DHT22;37186;51.394;5.454;2023-03-01T05:21:33;2.30;67.20
26821;DHT22;37186;51.394;5.454;2023-03-01T05:24:35;2.20;67.20
26821;DHT22;37186;51.394;5.454;2023-03-01T05:27:36;2.20;67.10
26821;DHT22;37186;51.394;5.454;2023-03-01T05:30:36;2.20;67.20
26821;DHT22;37186;51.394;5.454;2023-03-01T05:33:40;2.20;67.10
26821;DHT22;37186;51.394;5.454;2023-03-01T05:36:40;2.20;67.30
26821;DHT22;37186;51.394;5.454;2023-03-01T05:39:41;2.20;67.20
26821;DHT22;37186;51.394;5.454;2023-03-01T05:42:53;2.10;67.20
26821;DHT22;37186;51.394;5.454;2023-03-01T05:45:57;2.10;67.20
26821;DHT22;37186;51.394;5.454;2023-03-01T05:48:57;2.20;67.30
26821;DHT22;37186;51.394;5.454;2023-03-01T05:51:58;2.10;67.20
26821;DHT22;37186;51.394;5.454;2023-03-01T05:54:59;2.10;67.10
26821;DHT22;37186;51.394;5.454;2023-03-01T05:58:01;2.10;67.30
26821;DHT22;37186;51.394;5.454;2023-03-01T06:01:02;2.10;67.20
26821;DHT22;37186;51.394;5.454;2023-03-01T06:04:03;2.10;67.30
26821;DHT22;37186;51.394;5.454;2023-03-01T06:07:04;2.00;67.10
26821;DHT22;37186;51.394;5.454;2023-03-01T06:10:06;2.00;67.20
26821;DHT22;37186;51.394;5.454;2023-03-01T06:13:07;2.00;67.30
26821;DHT22;37186;51.394;5.454;2023-03-01T06:16:08;2.00;67.30
26821;DHT22;37186;51.394;5.454;2023-03-01T06:19:08;2.00;67.30
26821;DHT22;37186;51.394;5.454;2023-03-01T06:22:09;2.00;67.20
26821;DHT22;37186;51.394;5.454;2023-03-01T06:25:10;1.90;67.20
26821;DHT22;37186;51.394;5.454;2023-03-01T06:28:12;1.90;67.30
26821;DHT22;37186;51.394;5.454;2023-03-01T06:31:13;1.90;67.30
26821;DHT22;37186;51.394;5.454;2023-03-01T06:34:14;1.90;67.40
26821;DHT22;37186;51.394;5.454;2023-03-01T06:37:15;1.90;67.40
26821;DHT22;37186;51.394;5.454;2023-03-01T06:40:15;1.90;67.40
26821;DHT22;37186;51.394;5.454;2023-03-01T06:43:16;1.90;67.40
26821;DHT22;37186;51.394;5.454;2023-03-01T06:46:17;1.90;67.40
26821;DHT22;37186;51.394;5.454;2023-03-01T06:49:17;1.90;68.10
26821;DHT22;37186;51.394;5.454;2023-03-01T06:52:18;1.90;67.40
26821;DHT22;37186;51.394;5.454;2023-03-01T06:55:18;1.80;67.40
26821;DHT22;37186;51.394;5.454;2023-03-01T06:58:19;1.90;67.40
26821;DHT22;37186;51.394;5.454;2023-03-01T07:01:19;1.80;67.30
26821;DHT22;37186;51.394;5.454;2023-03-01T07:04:20;1.80;67.30
26821;DHT22;37186;51.394;5.454;2023-03-01T07:07:20;1.80;67.30
26821;DHT22;37186;51.394;5.454;2023-03-01T07:10:21;1.80;67.40
26821;DHT22;37186;51.394;5.454;2023-03-01T07:13:22;1.80;67.40
26821;DHT22;37186;51.394;5.454;2023-03-01T07:16:22;1.80;67.50
26821;DHT22;37186;51.394;5.454;2023-03-01T07:19:24;1.80;67.40
26821;DHT22;37186;51.394;5.454;2023-03-01T07:22:24;1.80;67.40
26821;DHT22;37186;51.394;5.454;2023-03-01T07:25:25;1.80;67.60
26821;DHT22;37186;51.394;5.454;2023-03-01T07:28:26;1.80;67.40
26821;DHT22;37186;51.394;5.454;2023-03-01T07:31:26;1.80;67.50
26821;DHT22;37186;51.394;5.454;2023-03-01T07:34:30;1.80;67.60
26821;DHT22;37186;51.394;5.454;2023-03-01T07:37:30;1.80;67.70
26821;DHT22;37186;51.394;5.454;2023-03-01T07:40:31;1.80;67.60
26821;DHT22;37186;51.394;5.454;2023-03-01T07:43:31;1.80;67.70
26821;DHT22;37186;51.394;5.454;2023-03-01T07:46:32;1.80;67.70
26821;DHT22;37186;51.394;5.454;2023-03-01T07:49:33;1.80;67.70
26821;DHT22;37186;51.394;5.454;2023-03-01T07:52:34;1.80;67.70
26821;DHT22;37186;51.394;5.454;2023-03-01T07:55:34;1.80;67.70
26821;DHT22;37186;51.394;5.454;2023-03-01T07:58:36;1.80;67.80
26821;DHT22;37186;51.394;5.454;2023-03-01T08:01:37;1.90;67.90
26821;DHT22;37186;51.394;5.454;2023-03-01T08:04:37;1.90;67.90
26821;DHT22;37186;51.394;5.454;2023-03-01T08:07:38;1.90;67.90
26821;DHT22;37186;51.394;5.454;2023-03-01T08:10:38;1.90;67.90
26821;DHT22;37186;51.394;5.454;2023-03-01T08:13:39;2.00;68.00
26821;DHT22;37186;51.394;5.454;2023-03-01T08:16:39;2.00;68.00
26821;DHT22;37186;51.394;5.454;2023-03-01T08:19:40;2.00;68.00
26821;DHT22;37186;51.394;5.454;2023-03-01T08:22:41;2.00;68.00
26821;DHT22;37186;51.394;5.454;2023-03-01T08:25:41;2.10;68.10
26821;DHT22;37186;51.394;5.454;2023-03-01T08:28:42;2.10;68.20
26821;DHT22;37186;51.394;5.454;2023-03-01T08:31:43;2.10;68.10
26821;DHT22;37186;51.394;5.454;2023-03-01T08:34:46;2.20;68.20
26821;DHT22;37186;51.394;5.454;2023-03-01T08:37:47;2.20;68.20
26821;DHT22;37186;51.394;5.454;2023-03-01T08:40:48;2.30;68.30
26821;DHT22;37186;51.394;5.454;2023-03-01T08:43:49;2.30;68.20
26821;DHT22;37186;51.394;5.454;2023-03-01T08:46:50;2.30;68.30
26821;DHT22;37186;51.394;5.454;2023-03-01T08:49:51;2.40;68.40
26821;DHT22;37186;51.394;5.454;2023-03-01T08:52:53;2.40;68.30
26821;DHT22;37186;51.394;5.454;2023-03-01T08:55:53;2.50;68.40
26821;DHT22;37186;51.394;5.454;2023-03-01T08:58:54;2.50;68.40
26821;DHT22;37186;51.394;5.454;2023-03-01T09:01:54;2.60;68.40
26821;DHT22;37186;51.394;5.454;2023-03-01T09:04:55;2.60;68.50
26821;DHT22;37186;51.394;5.454;2023-03-01T09:07:57;2.60;68.50
26821;DHT22;37186;51.394;5.454;2023-03-01T09:10:57;2.70;68.50
26821;DHT22;37186;51.394;5.454;2023-03-01T09:13:58;2.70;68.60
26821;DHT22;37186;51.394;5.454;2023-03-01T09:16:58;2.80;68.60
26821;DHT22;37186;51.394;5.454;2023-03-01T09:20:03;2.90;68.60
26821;DHT22;37186;51.394;5.454;2023-03-01T09:23:06;2.90;68.60
26821;DHT22;37186;51.394;5.454;2023-03-01T09:26:12;2.90;68.60
26821;DHT22;37186;51.394;5.454;2023-03-01T09:29:14;3.00;68.60
26821;DHT22;37186;51.394;5.454;2023-03-01T09:32:14;3.00;68.60
26821;DHT22;37186;51.394;5.454;2023-03-01T09:35:15;3.10;68.70
26821;DHT22;37186;51.394;5.454;2023-03-01T09:38:16;3.10;68.70
26821;DHT22;37186;51.394;5.454;2023-03-01T09:44:51;3.30;68.80
26821;DHT22;37186;51.394;5.454;2023-03-01T09:47:53;3.30;68.80
26821;DHT22;37186;51.394;5.454;2023-03-01T09:50:55;3.30;68.80
26821;DHT22;37186;51.394;5.454;2023-03-01T09:53:56;3.40;68.90
26821;DHT22;37186;51.394;5.454;2023-03-01T10:00:31;3.50;68.70
26821;DHT22;37186;51.394;5.454;2023-03-01T10:03:41;3.60;68.80
26821;DHT22;37186;51.394;5.454;2023-03-01T10:06:52;3.60;68.80
26821;DHT22;37186;51.394;5.454;2023-03-01T10:09:58;3.70;68.80
26821;DHT22;37186;51.394;5.454;2023-03-01T10:13:08;3.70;68.80
26821;DHT22;37186;51.394;5.454;2023-03-01T10:16:16;3.70;68.80
26821;DHT22;37186;51.394;5.454;2023-03-01T10:19:31;3.80;68.90
26821;DHT22;37186;51.394;5.454;2023-03-01T10:22:32;3.90;68.90
26821;DHT22;37186;51.394;5.454;2023-03-01T10:29:08;4.00;68.90
26821;DHT22;37186;51.394;5.454;2023-03-01T10:32:09;4.10;68.90
26821;DHT22;37186;51.394;5.454;2023-03-01T10:35:22;4.10;69.60
26821;DHT22;37186;51.394;5.454;2023-03-01T10:38:24;4.20;68.90
26821;DHT22;37186;51.394;5.454;2023-03-01T10:41:26;4.20;68.80
26821;DHT22;37186;51.394;5.454;2023-03-01T10:47:35;4.30;68.80
26821;DHT22;37186;51.394;5.454;2023-03-01T10:50:36;4.40;68.80
26821;DHT22;37186;51.394;5.454;2023-03-01T10:53:48;4.40;68.90
26821;DHT22;37186;51.394;5.454;2023-03-01T10:56:51;4.50;68.80
26821;DHT22;37186;51.394;5.454;2023-03-01T11:00:16;4.60;68.90
26821;DHT22;37186;51.394;5.454;2023-03-01T11:03:29;4.60;68.90
26821;DHT22;37186;51.394;5.454;2023-03-01T11:06:32;4.70;68.80
26821;DHT22;37186;51.394;5.454;2023-03-01T11:09:33;4.70;68.90
26821;DHT22;37186;51.394;5.454;2023-03-01T11:12:38;4.70;68.80
26821;DHT22;37186;51.394;5.454;2023-03-01T11:15:38;4.80;68.90
26821;DHT22;37186;51.394;5.454;2023-03-01T11:18:39;4.80;68.80
26821;DHT22;37186;51.394;5.454;2023-03-01T11:21:57;4.80;68.90
26821;DHT22;37186;51.394;5.454;2023-03-01T11:24:59;4.90;68.90
26821;DHT22;37186;51.394;5.454;2023-03-01T11:28:03;4.90;68.60
26821;DHT22;37186;51.394;5.454;2023-03-01T11:31:06;5.00;68.80
26821;DHT22;37186;51.394;5.454;2023-03-01T11:34:18;5.10;68.90
26821;DHT22;37186;51.394;5.454;2023-03-01T11:37:40;5.10;68.90
26821;DHT22;37186;51.394;5.454;2023-03-01T11:41:05;5.10;68.80
26821;DHT22;37186;51.394;5.454;2023-03-01T11:44:18;5.20;68.80
26821;DHT22;37186;51.394;5.454;2023-03-01T11:47:23;5.30;68.80
26821;DHT22;37186;51.394;5.454;2023-03-01T11:53:49;5.40;69.00
26821;DHT22;37186;51.394;5.454;2023-03-01T12:07:19;5.80;69.10
26821;DHT22;37186;51.394;5.454;2023-03-01T12:10:29;5.90;69.30
26821;DHT22;37186;51.394;5.454;2023-03-01T12:20:31;6.30;69.60
26821;DHT22;37186;51.394;5.454;2023-03-01T12:43:34;7.20;69.40
26821;DHT22;37186;51.394;5.454;2023-03-01T12:50:31;7.50;69.40
26821;DHT22;37186;51.394;5.454;2023-03-01T12:53:40;7.60;68.90
26821;DHT22;37186;51.394;5.454;2023-03-01T12:56:42;7.70;68.40
26821;DHT22;37186;51.394;5.454;2023-03-01T12:59:51;7.80;68.10
26821;DHT22;37186;51.394;5.454;2023-03-01T13:03:10;7.90;68.20
26821;DHT22;37186;51.394;5.454;2023-03-01T13:06:15;8.00;67.90
26821;DHT22;37186;51.394;5.454;2023-03-01T13:15:45;8.30;68.40
26821;DHT22;37186;51.394;5.454;2023-03-01T13:18:48;8.40;68.40
26821;DHT22;37186;51.394;5.454;2023-03-01T13:21:50;8.40;68.10
26821;DHT22;37186;51.394;5.454;2023-03-01T13:25:01;8.50;67.90
26821;DHT22;37186;51.394;5.454;2023-03-01T13:34:58;8.70;68.00
26821;DHT22;37186;51.394;5.454;2023-03-01T13:44:38;8.80;67.50
26821;DHT22;37186;51.394;5.454;2023-03-01T13:47:41;8.80;67.70
26821;DHT22;37186;51.394;5.454;2023-03-01T13:50:49;8.90;67.40
26821;DHT22;37186;51.394;5.454;2023-03-01T13:53:52;8.90;67.50
26821;DHT22;37186;51.394;5.454;2023-03-01T13:56:53;9.00;67.80
26821;DHT22;37186;51.394;5.454;2023-03-01T13:59:54;9.00;67.90
26821;DHT22;37186;51.394;5.454;2023-03-01T14:03:19;9.20;67.90
26821;DHT22;37186;51.394;5.454;2023-03-01T14:06:22;9.20;66.80
26821;DHT22;37186;51.394;5.454;2023-03-01T14:09:25;9.30;67.60
26821;DHT22;37186;51.394;5.454;2023-03-01T14:16:13;9.50;68.10
26821;DHT22;37186;51.394;5.454;2023-03-01T14:19:18;9.60;68.10
26821;DHT22;37186;51.394;5.454;2023-03-01T14:22:24;9.80;67.40
26821;DHT22;37186;51.394;5.454;2023-03-01T14:25:28;9.80;68.20
26821;DHT22;37186;51.394;5.454;2023-03-01T14:28:31;9.90;67.90
26821;DHT22;37186;51.394;5.454;2023-03-01T14:31:38;10.10;67.70
26821;DHT22;37186;51.394;5.454;2023-03-01T14:34:44;10.10;67.80
26821;DHT22;37186;51.394;5.454;2023-03-01T14:37:45;10.20;67.40
26821;DHT22;37186;51.394;5.454;2023-03-01T14:40:49;10.20;67.40
26821;DHT22;37186;51.394;5.454;2023-03-01T14:43:59;10.20;66.60
26821;DHT22;37186;51.394;5.454;2023-03-01T14:47:00;10.20;66.30
26821;DHT22;37186;51.394;5.454;2023-03-01T14:53:27;10.30;67.40
26821;DHT22;37186;51.394;5.454;2023-03-01T14:56:43;10.30;67.10
26821;DHT22;37186;51.394;5.454;2023-03-01T14:59:45;10.30;67.20
26821;DHT22;37186;51.394;5.454;2023-03-01T15:02:48;10.30;67.40
26821;DHT22;37186;51.394;5.454;2023-03-01T15:05:49;10.30;67.10
26821;DHT22;37186;51.394;5.454;2023-03-01T15:08:52;10.40;67.40
26821;DHT22;37186;51.394;5.454;2023-03-01T15:11:53;10.40;67.90
26821;DHT22;37186;51.394;5.454;2023-03-01T15:14:54;10.40;67.80
26821;DHT22;37186;51.394;5.454;2023-03-01T15:17:58;10.50;67.90
26821;DHT22;37186;51.394;5.454;2023-03-01T15:21:08;10.50;68.10
26821;DHT22;37186;51.394;5.454;2023-03-01T15:27:21;10.60;66.90
26821;DHT22;37186;51.394;5.454;2023-03-01T15:30:27;10.60;67.10
26821;DHT22;37186;51.394;5.454;2023-03-01T15:33:35;10.60;67.20
26821;DHT22;37186;51.394;5.454;2023-03-01T15:36:44;10.60;66.60
26821;DHT22;37186;51.394;5.454;2023-03-01T15:39:56;10.60;67.20
26821;DHT22;37186;51.394;5.454;2023-03-01T15:42:58;10.60;66.90
26821;DHT22;37186;51.394;5.454;2023-03-01T15:45:59;10.70;67.60
26821;DHT22;37186;51.394;5.454;2023-03-01T15:52:33;10.80;68.20
26821;DHT22;37186;51.394;5.454;2023-03-01T15:55:37;10.90;68.20
26821;DHT22;37186;51.394;5.454;2023-03-01T15:58:37;11.00;68.00
26821;DHT22;37186;51.394;5.454;2023-03-01T16:01:38;11.10;68.40
26821;DHT22;37186;51.394;5.454;2023-03-01T16:04:39;11.10;67.80
26821;DHT22;37186;51.394;5.454;2023-03-01T16:07:40;11.20;68.20
26821;DHT22;37186;51.394;5.454;2023-03-01T16:10:41;11.20;67.60
26821;DHT22;37186;51.394;5.454;2023-03-01T16:13:45;11.30;67.80
26821;DHT22;37186;51.394;5.454;2023-03-01T16:16:46;11.30;67.80
26821;DHT22;37186;51.394;5.454;2023-03-01T16:19:48;11.30;67.70
26821;DHT22;37186;51.394;5.454;2023-03-01T16:22:48;11.30;67.10
26821;DHT22;37186;51.394;5.454;2023-03-01T16:25:49;11.30;67.00
26821;DHT22;37186;51.394;5.454;2023-03-01T16:28:50;11.30;67.20
26821;DHT22;37186;51.394;5.454;2023-03-01T16:31:50;11.20;66.40
26821;DHT22;37186;51.394;5.454;2023-03-01T16:34:51;11.10;66.10
26821;DHT22;37186;51.394;5.454;2023-03-01T16:37:51;11.00;66.00
26821;DHT22;37186;51.394;5.454;2023-03-01T16:40:53;11.00;66.20
26821;DHT22;37186;51.394;5.454;2023-03-01T16:43:54;10.90;65.80
26821;DHT22;37186;51.394;5.454;2023-03-01T16:46:55;10.80;66.10
26821;DHT22;37186;51.394;5.454;2023-03-01T16:49:55;10.70;66.00
26821;DHT22;37186;51.394;5.454;2023-03-01T16:52:56;10.60;65.90
26821;DHT22;37186;51.394;5.454;2023-03-01T16:55:58;10.50;65.80
26821;DHT22;37186;51.394;5.454;2023-03-01T16:58:58;10.40;65.90
26821;DHT22;37186;51.394;5.454;2023-03-01T17:01:59;10.30;65.80
26821;DHT22;37186;51.394;5.454;2023-03-01T17:04:59;10.30;65.70
26821;DHT22;37186;51.394;5.454;2023-03-01T17:08:00;10.20;65.80
26821;DHT22;37186;51.394;5.454;2023-03-01T17:11:19;10.10;65.70
26821;DHT22;37186;51.394;5.454;2023-03-01T17:14:20;9.90;65.60
26821;DHT22;37186;51.394;5.454;2023-03-01T17:17:21;9.90;65.70
26821;DHT22;37186;51.394;5.454;2023-03-01T17:20:21;9.80;65.60
26821;DHT22;37186;51.394;5.454;2023-03-01T17:23:22;9.70;65.60
26821;DHT22;37186;51.394;5.454;2023-03-01T17:26:23;9.60;65.40
26821;DHT22;37186;51.394;5.454;2023-03-01T17:29:23;9.50;65.10
26821;DHT22;37186;51.394;5.454;2023-03-01T17:32:24;9.50;65.20
26821;DHT22;37186;51.394;5.454;2023-03-01T17:35:24;9.40;65.30
26821;DHT22;37186;51.394;5.454;2023-03-01T17:38:25;9.30;65.30
26821;DHT22;37186;51.394;5.454;2023-03-01T17:41:26;9.30;65.20
26821;DHT22;37186;51.394;5.454;2023-03-01T17:44:27;9.20;65.20
26821;DHT22;37186;51.394;5.454;2023-03-01T17:47:28;9.10;64.80
26821;DHT22;37186;51.394;5.454;2023-03-01T17:50:29;9.00;64.80
26821;DHT22;37186;51.394;5.454;2023-03-01T17:53:29;8.90;64.60
26821;DHT22;37186;51.394;5.454;2023-03-01T17:56:30;8.90;65.00
26821;DHT22;37186;51.394;5.454;2023-03-01T17:59:36;8.80;65.00
26821;DHT22;37186;51.394;5.454;2023-03-01T18:02:37;8.70;64.90
26821;DHT22;37186;51.394;5.454;2023-03-01T18:05:38;8.60;64.70
26821;DHT22;37186;51.394;5.454;2023-03-01T18:08:38;8.60;64.70
26821;DHT22;37186;51.394;5.454;2023-03-01T18:11:39;8.50;65.00
26821;DHT22;37186;51.394;5.454;2023-03-01T18:14:41;8.40;64.80
26821;DHT22;37186;51.394;5.454;2023-03-01T18:17:41;8.40;64.90
26821;DHT22;37186;51.394;5.454;2023-03-01T18:20:42;8.30;64.90
26821;DHT22;37186;51.394;5.454;2023-03-01T18:23:42;8.20;64.90
26821;DHT22;37186;51.394;5.454;2023-03-01T18:26:43;8.20;64.90
26821;DHT22;37186;51.394;5.454;2023-03-01T18:29:44;8.10;64.80
26821;DHT22;37186;51.394;5.454;2023-03-01T18:32:44;8.10;64.90
26821;DHT22;37186;51.394;5.454;2023-03-01T18:35:45;8.00;65.00
26821;DHT22;37186;51.394;5.454;2023-03-01T18:38:46;7.90;65.80
26821;DHT22;37186;51.394;5.454;2023-03-01T18:41:48;7.90;64.90
26821;DHT22;37186;51.394;5.454;2023-03-01T18:44:48;7.80;65.00
26821;DHT22;37186;51.394;5.454;2023-03-01T18:47:49;7.80;64.90
26821;DHT22;37186;51.394;5.454;2023-03-01T18:50:49;7.70;64.90
26821;DHT22;37186;51.394;5.454;2023-03-01T18:53:50;7.70;64.70
26821;DHT22;37186;51.394;5.454;2023-03-01T18:56:50;7.60;64.60
26821;DHT22;37186;51.394;5.454;2023-03-01T18:59:51;7.50;64.70
26821;DHT22;37186;51.394;5.454;2023-03-01T19:02:51;7.50;64.80
26821;DHT22;37186;51.394;5.454;2023-03-01T19:05:52;7.40;64.70
26821;DHT22;37186;51.394;5.454;2023-03-01T19:08:53;7.40;64.90
26821;DHT22;37186;51.394;5.454;2023-03-01T19:11:54;7.30;64.90
26821;DHT22;37186;51.394;5.454;2023-03-01T19:14:58;7.20;65.00
26821;DHT22;37186;51.394;5.454;2023-03-01T19:17:58;7.20;64.90
26821;DHT22;37186;51.394;5.454;2023-03-01T19:21:02;7.10;64.80
26821;DHT22;37186;51.394;5.454;2023-03-01T19:24:03;7.10;64.80
26821;DHT22;37186;51.394;5.454;2023-03-01T19:27:04;7.00;65.00
26821;DHT22;37186;51.394;5.454;2023-03-01T19:30:05;7.00;65.00
26821;DHT22;37186;51.394;5.454;2023-03-01T19:33:06;6.90;65.10
26821;DHT22;37186;51.394;5.454;2023-03-01T19:36:08;6.90;65.00
26821;DHT22;37186;51.394;5.454;2023-03-01T19:39:10;6.90;65.30
26821;DHT22;37186;51.394;5.454;2023-03-01T19:42:12;6.80;65.00
26821;DHT22;37186;51.394;5.454;2023-03-01T19:45:13;6.70;65.00
26821;DHT22;37186;51.394;5.454;2023-03-01T19:48:13;6.70;65.40
26821;DHT22;37186;51.394;5.454;2023-03-01T19:51:14;6.70;65.30
26821;DHT22;37186;51.394;5.454;2023-03-01T19:54:15;6.60;65.00
26821;DHT22;37186;51.394;5.454;2023-03-01T19:57:19;6.60;65.20
26821;DHT22;37186;51.394;5.454;2023-03-01T20:00:20;6.60;65.10
26821;DHT22;37186;51.394;5.454;2023-03-01T20:03:20;6.50;65.30
26821;DHT22;37186;51.394;5.454;2023-03-01T20:06:21;6.50;65.40
26821;DHT22;37186;51.394;5.454;2023-03-01T20:09:22;6.50;65.50
26821;DHT22;37186;51.394;5.454;2023-03-01T20:12:23;6.50;65.40
26821;DHT22;37186;51.394;5.454;2023-03-01T20:15:23;6.50;65.50
26821;DHT22;37186;51.394;5.454;2023-03-01T20:18:24;6.40;65.10
26821;DHT22;37186;51.394;5.454;2023-03-01T20:21:25;6.40;66.30
26821;DHT22;37186;51.394;5.454;2023-03-01T20:24:26;6.40;65.20
26821;DHT22;37186;51.394;5.454;2023-03-01T20:27:27;6.30;65.50
26821;DHT22;37186;51.394;5.454;2023-03-01T20:30:27;6.30;65.30
26821;DHT22;37186;51.394;5.454;2023-03-01T20:33:28;6.30;65.30
26821;DHT22;37186;51.394;5.454;2023-03-01T20:36:28;6.20;65.20
26821;DHT22;37186;51.394;5.454;2023-03-01T20:39:29;6.20;65.20
26821;DHT22;37186;51.394;5.454;2023-03-01T20:42:30;6.10;65.20
26821;DHT22;37186;51.394;5.454;2023-03-01T20:45:30;6.10;65.20
26821;DHT22;37186;51.394;5.454;2023-03-01T20:48:31;6.10;65.40
26821;DHT22;37186;51.394;5.454;2023-03-01T20:51:32;6.10;65.40
26821;DHT22;37186;51.394;5.454;2023-03-01T20:54:32;6.00;65.00
26821;DHT22;37186;51.394;5.454;2023-03-01T20:57:34;6.00;65.40
26821;DHT22;37186;51.394;5.454;2023-03-01T21:00:35;6.00;65.10
26821;DHT22;37186;51.394;5.454;2023-03-01T21:03:35;5.90;64.90
26821;DHT22;37186;51.394;5.454;2023-03-01T21:06:36;5.90;65.20
26821;DHT22;37186;51.394;5.454;2023-03-01T21:09:38;5.80;65.30
26821;DHT22;37186;51.394;5.454;2023-03-01T21:12:38;5.80;65.40
26821;DHT22;37186;51.394;5.454;2023-03-01T21:15:39;5.80;65.20